Change the Weather History Date:

Tuesday, January 8, 2013

  Actual Average (KMIW) Record (KMIW)
Temperature  
Mean Temperature 36 °F 19 °F  
Max Temperature 45 °F 27 °F 60 °F (2003)
Min Temperature 26 °F 11 °F -14 °F (2015)
Degree Days  
Heating Degree Days 30 46  
Month to date heating degree days 368  
Since 1 July heating degree days 3180  
Cooling Degree Days 0 0  
Month to date cooling degree days 0  
Year to date cooling degree days 0  
Moisture  
Dew Point 29 °F    
Average Humidity 76    
Maximum Humidity 90    
Minimum Humidity 59    
Precipitation  
Precipitation 0.00 in 0.03 in 0.02 in (2008)
Month to date precipitation 0.19  
Sea Level Pressure  
Sea Level Pressure 29.97 in    
Wind  
Wind Speed 9 mph (South)    
Max Wind Speed 17 mph    
Max Gust Speed 22 mph    
Visibility 10 miles    
Events      
T = Trace of Precipitation, MM = Missing Value Source: NWS Daily Summary

Daily Weather History Graph

Daily Weather History Graph

Search for Another Location

Airport or City:

Trip Planner

Search our weather history database for the weather conditions in past years. The results will help you decide how hot, cold, wet, or windy it might be!

Date:

Astronomy

Jan. 08, 2013 Rise Set
Actual Time 7:37 AM CST 4:58 PM CST
Civil Twilight 7:06 AM CST 5:29 PM CST
Nautical Twilight 6:32 AM CST 6:03 PM CST
Astronomical Twilight 5:58 AM CST 6:37 PM CST
Moon 4:11 AM CST (1/8) 2:00 PM CST (1/8)
Length of Visible Light 10h 22m
Length of Day
9h 20m
Waning Crescent, 13% of the Moon is Illuminated
Jan 8
Waning Crescent
Jan 11
New
Jan 18
First Quarter
Jan 26
Full
Feb 3
Last Quarter

Hourly Weather History & Observations

Time (CST) Temp. Windchill Dew Point Humidity Pressure Visibility Wind Dir Wind Speed Gust Speed Precip Events Conditions
12:15 AM 30.9 °F 23.5 °F 25.9 °F 82% 30.02 in 10.0 mi South 8.1 mph - N/A   Clear
12:35 AM 30.6 °F 23.8 °F 25.5 °F 82% 30.01 in 10.0 mi South 6.9 mph - N/A   Clear
12:55 AM 30.6 °F 23.1 °F 25.7 °F 82% 30.02 in 10.0 mi South 8.1 mph - N/A   Clear
1:15 AM 30.9 °F 22.8 °F 26.1 °F 82% 30.01 in 10.0 mi South 9.2 mph - N/A   Clear
1:35 AM 32.0 °F 24.8 °F 26.6 °F 80% 30.01 in 10.0 mi South 8.1 mph - N/A   Clear
1:55 AM 31.1 °F 23.7 °F 26.1 °F 82% 30.02 in 10.0 mi South 8.1 mph - N/A   Clear
2:15 AM 30.7 °F 23.3 °F 25.7 °F 82% 30.02 in 10.0 mi South 8.1 mph - N/A   Clear
2:35 AM 31.6 °F 24.4 °F 26.1 °F 80% 30.02 in 10.0 mi South 8.1 mph - N/A   Clear
2:55 AM 30.0 °F 21.7 °F 25.3 °F 83% 30.01 in 10.0 mi South 9.2 mph - N/A   Clear
3:15 AM 29.8 °F 22.2 °F 25.2 °F 83% 30.01 in 10.0 mi South 8.1 mph - N/A   Clear
3:35 AM 29.3 °F 22.3 °F 24.8 °F 83% 30.01 in 10.0 mi South 6.9 mph - N/A   Clear
3:55 AM 28.0 °F 20.8 °F 23.7 °F 84% 30.00 in 10.0 mi South 6.9 mph - N/A   Clear
4:15 AM 29.1 °F 21.3 °F 24.4 °F 83% 30.00 in 10.0 mi South 8.1 mph - N/A   Clear
4:35 AM 28.0 °F 20.8 °F 24.1 °F 85% 30.00 in 10.0 mi SSE 6.9 mph - N/A   Clear
4:55 AM 28.6 °F 22.4 °F 24.4 °F 84% 29.99 in 10.0 mi SSE 5.8 mph - N/A   Clear
5:15 AM 28.8 °F 22.6 °F 24.8 °F 85% 29.98 in 10.0 mi SE 5.8 mph - N/A   Clear
5:35 AM 28.0 °F 20.8 °F 23.9 °F 84% 29.98 in 10.0 mi SE 6.9 mph - N/A   Clear
5:55 AM 28.0 °F 21.7 °F 24.6 °F 87% 29.98 in 10.0 mi SE 5.8 mph - N/A   Clear
6:15 AM 27.1 °F 19.7 °F 23.7 °F 87% 29.98 in 10.0 mi SE 6.9 mph - N/A   Clear
6:55 AM 27.3 °F 20.9 °F 23.9 °F 87% 30.00 in 10.0 mi ESE 5.8 mph - N/A   Clear
7:15 AM 27.3 °F 19.9 °F 23.9 °F 87% 29.99 in 10.0 mi SE 6.9 mph - N/A   Clear
7:35 AM 27.1 °F 20.7 °F 23.9 °F 88% 29.99 in 10.0 mi SE 5.8 mph - N/A   Clear
7:55 AM 26.1 °F 19.4 °F 23.2 °F 89% 30.00 in 10.0 mi SE 5.8 mph - N/A   Clear
8:15 AM 26.6 °F 19.1 °F 23.9 °F 90% 30.00 in 10.0 mi SE 6.9 mph - N/A   Clear
8:35 AM 28.8 °F 21.7 °F 25.0 °F 86% 30.01 in 10.0 mi SE 6.9 mph - N/A   Clear
9:15 AM 31.5 °F 24.9 °F 26.8 °F 83% 30.01 in 10.0 mi SSE 6.9 mph - N/A   Clear
9:35 AM 31.6 °F 23.7 °F 27.3 °F 84% 30.01 in 10.0 mi SSE 9.2 mph - N/A   Clear
9:55 AM 32.4 °F 24.6 °F 28.4 °F 85% 30.00 in 10.0 mi SSE 9.2 mph - N/A   Clear
10:15 AM 34.0 °F 26.0 °F 29.3 °F 83% 30.00 in 10.0 mi SSE 10.4 mph - N/A   Clear
10:35 AM 35.6 °F 27.5 °F 30.2 °F 81% 30.00 in 10.0 mi SSE 11.5 mph - N/A   Clear
11:15 AM 37.4 °F 29.3 °F 31.1 °F 78% 29.98 in 10.0 mi South 12.7 mph - N/A   Clear
11:35 AM 38.5 °F 30.7 °F 31.6 °F 76% 29.97 in 10.0 mi South 12.7 mph - N/A   Clear
11:55 AM 39.9 °F 32.5 °F 32.0 °F 73% 29.95 in 10.0 mi South 12.7 mph - N/A   Clear
12:35 PM 40.1 °F 32.0 °F 32.0 °F 73% 29.93 in 10.0 mi South 15.0 mph 19.6 mph N/A   Clear
1:15 PM 43.0 °F 37.7 °F 32.7 °F 67% 29.92 in 10.0 mi South 9.2 mph 13.8 mph N/A   Clear
1:35 PM 43.5 °F 37.9 °F 32.7 °F 66% 29.91 in 10.0 mi South 10.4 mph - N/A   Clear
1:55 PM 43.5 °F 36.1 °F 32.4 °F 65% 29.90 in 10.0 mi SSE 16.1 mph - N/A   Clear
2:15 PM 44.1 °F 36.8 °F 32.5 °F 64% 29.88 in 10.0 mi SSE 16.1 mph - N/A   Clear
2:35 PM 45.5 °F 39.2 °F 33.8 °F 64% 29.87 in 10.0 mi SSE 13.8 mph 20.7 mph N/A   Clear
2:55 PM 45.9 °F 38.8 °F 32.9 °F 61% 29.87 in 10.0 mi South 17.3 mph - N/A   Clear
3:15 PM 45.7 °F 38.8 °F 32.9 °F 61% 29.87 in 10.0 mi South 16.1 mph - N/A   Clear
3:35 PM 45.5 °F 38.6 °F 32.7 °F 61% 29.87 in 10.0 mi South 16.1 mph - N/A   Clear
3:55 PM 45.7 °F 39.1 °F 32.0 °F 59% 29.88 in 10.0 mi South 15.0 mph 21.9 mph N/A   Clear
4:15 PM 44.8 °F 38.7 °F 32.2 °F 61% 29.89 in 10.0 mi South 12.7 mph - N/A   Clear
4:35 PM 43.9 °F 37.5 °F 32.0 °F 63% 29.90 in 10.0 mi South 12.7 mph 19.6 mph N/A   Clear
5:15 PM 42.6 °F 35.2 °F 31.5 °F 65% 29.91 in 10.0 mi South 15.0 mph - N/A   Clear
5:35 PM 42.8 °F 35.1 °F 31.1 °F 63% 29.91 in 10.0 mi SSW 16.1 mph 21.9 mph N/A   Clear
5:55 PM 41.9 °F 35.0 °F 31.1 °F 66% 29.92 in 10.0 mi SSW 12.7 mph - N/A   Clear
6:15 PM 41.9 °F 35.4 °F 31.1 °F 66% 29.92 in 10.0 mi SSW 11.5 mph - N/A   Clear
6:35 PM 41.9 °F 34.6 °F 31.1 °F 66% 29.93 in 10.0 mi SSW 13.8 mph - N/A   Clear
7:35 PM 40.1 °F 32.7 °F 31.6 °F 72% 29.94 in 10.0 mi SSW 12.7 mph - N/A   Clear
7:55 PM 39.7 °F 32.7 °F 31.6 °F 73% 29.94 in 10.0 mi SSW 11.5 mph - N/A   Clear
8:15 PM 40.1 °F 33.2 °F 31.8 °F 72% 29.96 in 10.0 mi SSW 11.5 mph - N/A   Clear
8:35 PM 40.3 °F 33.0 °F 31.8 °F 72% 29.97 in 10.0 mi SW 12.7 mph - N/A   Clear
8:55 PM 39.7 °F 32.3 °F 32.0 °F 74% 29.98 in 10.0 mi SW 12.7 mph - N/A   Clear
9:15 PM 39.2 °F 32.0 °F 32.0 °F 75% 29.98 in 10.0 mi SW 11.5 mph - N/A   Clear
9:35 PM 39.2 °F 32.0 °F 32.0 °F 75% 29.99 in 10.0 mi SW 11.5 mph - N/A   Scattered Clouds
9:55 PM 38.8 °F 31.2 °F 32.0 °F 76% 30.00 in 10.0 mi WSW 12.7 mph - N/A   Clear
10:15 PM 39.2 °F 31.6 °F 32.0 °F 75% 30.01 in 10.0 mi WSW 12.7 mph - N/A   Clear
10:35 PM 38.7 °F 31.8 °F 32.0 °F 77% 30.02 in 10.0 mi West 10.4 mph - N/A   Clear
10:55 PM 38.7 °F 30.9 °F 31.6 °F 76% 30.03 in 10.0 mi West 12.7 mph - N/A   Clear
11:15 PM 38.3 °F 30.9 °F 31.3 °F 76% 30.04 in 10.0 mi West 11.5 mph - N/A   Clear
11:55 PM 37.4 °F 29.3 °F 31.1 °F 78% 30.05 in 10.0 mi West 12.7 mph - N/A   Clear